Time;durP1;ratioP1;P1;durP2;ratioP2;P2;SDS_P1;SDS_P2;PMS_P1;PMS_P2;Temp;Humidity;BMP_temperature;BMP_pressure;BME280_temperature;BME280_humidity;BME280_pressure;Samples;Min_cycle;Max_cycle;Signal;HPM_P1;HPM_P2
2023/09/19 00:00:56;;;;;;;19.02;3.47;;;;;;;;;;5011876;28;20025;-69
2023/09/19 00:03:22;;;;;;;16.42;3.95;;;;;;;;;;5012003;28;20030;-69
2023/09/19 00:05:50;;;;;;;24.30;4.82;;;;;;;;;;5012959;28;20034;-68
2023/09/19 00:08:15;;;;;;;17.23;4.07;;;;;;;;;;5013048;28;20022;-68
2023/09/19 00:10:41;;;;;;;25.95;4.63;;;;;;;;;;5010521;28;20029;-69
2023/09/19 00:13:07;;;;;;;24.17;3.55;;;;;;;;;;4999930;28;20391;-68
2023/09/19 00:15:41;;;;;;;19.17;3.35;;;;;;;;;;4999484;28;20079;-68
2023/09/19 00:18:08;;;;;;;15.95;3.47;;;;;;;;;;4995842;28;20027;-68
2023/09/19 00:20:36;;;;;;;14.35;3.58;;;;;;;;;;5007816;28;20022;-68
2023/09/19 00:23:08;;;;;;;14.18;2.83;;;;;;;;;;5016631;28;20476;-68
2023/09/19 00:25:38;;;;;;;12.77;2.75;;;;;;;;;;5016371;28;20033;-68
2023/09/19 00:28:07;;;;;;;10.35;3.10;;;;;;;;;;5015920;28;20025;-68
2023/09/19 00:30:33;;;;;;;14.48;3.03;;;;;;;;;;5016591;28;20033;-68
2023/09/19 00:32:58;;;;;;;14.23;4.63;;;;;;;;;;5016238;28;20036;-68
2023/09/19 00:35:27;;;;;;;23.15;5.60;;;;;;;;;;5016659;28;20060;-67
2023/09/19 00:37:52;;;;;;;16.00;2.88;;;;;;;;;;5016226;28;20441;-68
2023/09/19 00:40:18;;;;;;;19.90;4.50;;;;;;;;;;5016085;28;20064;-68
2023/09/19 00:42:44;;;;;;;15.40;3.05;;;;;;;;;;5014278;28;20022;-68
2023/09/19 00:45:11;;;;;;;10.50;2.88;;;;;;;;;;5016072;28;20083;-67
2023/09/19 00:47:41;;;;;;;10.73;2.67;;;;;;;;;;5006539;28;20113;-68
2023/09/19 00:50:08;;;;;;;10.65;3.30;;;;;;;;;;5008276;28;20101;-68
2023/09/19 00:52:38;;;;;;;9.25;2.75;;;;;;;;;;5015348;28;20030;-68
2023/09/19 00:55:08;;;;;;;10.88;2.63;;;;;;;;;;5014650;28;20034;-68
2023/09/19 00:57:34;;;;;;;15.18;3.15;;;;;;;;;;5016303;28;20026;-68
2023/09/19 01:00:00;;;;;;;14.10;3.63;;;;;;;;;;5014431;28;20038;-67
2023/09/19 01:02:29;;;;;;;15.07;2.72;;;;;;;;;;5014754;28;20499;-67
2023/09/19 01:04:55;;;;;;;10.55;3.67;;;;;;;;;;5014612;28;20034;-67
2023/09/19 01:07:22;;;;;;;17.77;2.90;;;;;;;;;;5014093;28;20075;-67
2023/09/19 01:09:47;;;;;;;9.82;2.45;;;;;;;;;;5015686;28;20095;-67
2023/09/19 01:12:18;;;;;;;9.75;2.83;;;;;;;;;;5015993;28;20484;-67
2023/09/19 01:15:00;;;;;;;9.88;2.40;;;;;;;;;;5014984;28;20372;-67
2023/09/19 01:17:45;;;;;;;11.73;3.05;;;;;;;;;;5012487;28;20030;-67
2023/09/19 01:20:21;;;;;;;6.53;2.25;;;;;;;;;;4999731;28;20165;-67
2023/09/19 01:23:11;;;;;;;11.00;2.45;;;;;;;;;;5013974;28;20033;-67
2023/09/19 01:25:51;;;;;;;10.02;2.22;;;;;;;;;;5014089;28;20367;-67
2023/09/19 01:29:01;;;;;;;10.20;3.25;;;;;;;;;;5014328;28;20101;-67
2023/09/19 01:31:28;;;;;;;10.60;4.07;;;;;;;;;;5013351;28;20061;-67
2023/09/19 01:34:04;;;;;;;10.50;3.28;;;;;;;;;;5015064;28;20033;-67
2023/09/19 01:36:35;;;;;;;16.38;2.55;;;;;;;;;;5015220;28;20480;-67
2023/09/19 01:39:05;;;;;;;14.43;2.97;;;;;;;;;;5015279;28;20472;-67
2023/09/19 01:41:57;;;;;;;4.15;2.03;;;;;;;;;;5014320;28;20026;-67
2023/09/19 01:44:34;;;;;;;8.10;2.85;;;;;;;;;;5008367;28;20041;-67
2023/09/19 01:47:04;;;;;;;12.98;3.08;;;;;;;;;;5013744;28;20025;-67
2023/09/19 01:49:38;;;;;;;15.18;2.67;;;;;;;;;;5023529;28;20057;-67
2023/09/19 01:52:13;;;;;;;12.88;2.72;;;;;;;;;;4999400;28;20033;-67
2023/09/19 01:55:05;;;;;;;7.45;3.10;;;;;;;;;;4995364;28;20138;-67
2023/09/19 01:57:35;;;;;;;9.68;2.35;;;;;;;;;;4994420;28;20023;-67
2023/09/19 02:00:06;;;;;;;11.07;2.08;;;;;;;;;;4993882;28;20022;-67
2023/09/19 02:02:44;;;;;;;12.13;2.50;;;;;;;;;;4994597;28;20030;-67
2023/09/19 02:05:10;;;;;;;10.70;1.92;;;;;;;;;;4994699;28;20038;-67
2023/09/19 02:07:35;;;;;;;7.75;2.63;;;;;;;;;;4994244;28;20373;-67
2023/09/19 02:10:01;;;;;;;7.85;2.13;;;;;;;;;;4994487;28;20079;-67
2023/09/19 02:12:27;;;;;;;8.02;2.35;;;;;;;;;;4995343;28;20498;-67
2023/09/19 02:14:52;;;;;;;7.05;2.63;;;;;;;;;;4993564;28;20050;-67
2023/09/19 02:17:17;;;;;;;9.82;2.78;;;;;;;;;;4995802;28;20530;-67
2023/09/19 02:19:43;;;;;;;6.78;1.90;;;;;;;;;;4994241;28;20064;-67
2023/09/19 02:22:10;;;;;;;8.02;1.90;;;;;;;;;;4995061;28;20022;-67
2023/09/19 02:24:38;;;;;;;5.70;2.45;;;;;;;;;;4994957;28;20515;-67
2023/09/19 02:27:04;;;;;;;9.15;2.35;;;;;;;;;;4993277;28;20037;-67
2023/09/19 02:29:30;;;;;;;13.73;2.20;;;;;;;;;;4994956;28;20034;-67
2023/09/19 02:31:55;;;;;;;4.72;2.00;;;;;;;;;;4995004;28;20026;-67
2023/09/19 02:34:21;;;;;;;10.25;2.45;;;;;;;;;;4993149;28;20033;-66
2023/09/19 02:36:47;;;;;;;6.82;2.05;;;;;;;;;;4995138;28;20062;-66
2023/09/19 02:39:12;;;;;;;6.80;2.10;;;;;;;;;;4994709;28;20030;-67
2023/09/19 02:41:37;;;;;;;13.88;3.33;;;;;;;;;;4995042;28;20030;-67
2023/09/19 02:44:07;;;;;;;14.88;3.88;;;;;;;;;;4994078;28;20459;-67
2023/09/19 02:46:32;;;;;;;7.07;1.75;;;;;;;;;;4994977;28;20023;-67
2023/09/19 02:48:58;;;;;;;11.50;2.78;;;;;;;;;;4994558;28;20045;-67
2023/09/19 02:51:23;;;;;;;6.38;3.50;;;;;;;;;;4994520;28;20038;-67
2023/09/19 02:53:52;;;;;;;8.38;2.58;;;;;;;;;;4992746;28;20041;-67
2023/09/19 02:56:18;;;;;;;15.77;2.67;;;;;;;;;;4993328;28;20054;-67
2023/09/19 02:58:43;;;;;;;20.55;3.45;;;;;;;;;;4994305;28;20041;-67
2023/09/19 03:01:12;;;;;;;12.43;2.97;;;;;;;;;;4994683;28;20022;-67
2023/09/19 03:03:38;;;;;;;11.30;3.45;;;;;;;;;;4993709;28;20503;-67
2023/09/19 03:06:05;;;;;;;15.82;2.67;;;;;;;;;;4994267;28;20026;-67
2023/09/19 03:08:31;;;;;;;17.90;2.67;;;;;;;;;;4992944;28;20061;-67
2023/09/19 03:10:56;;;;;;;12.23;3.63;;;;;;;;;;4994533;28;20054;-67
2023/09/19 03:13:21;;;;;;;15.23;2.53;;;;;;;;;;4993642;28;20547;-66
2023/09/19 03:15:49;;;;;;;15.57;2.97;;;;;;;;;;4994168;28;20026;-66
2023/09/19 03:18:14;;;;;;;18.40;3.15;;;;;;;;;;4994086;28;20101;-66
2023/09/19 03:20:39;;;;;;;5.38;2.33;;;;;;;;;;4994002;28;20062;-66
2023/09/19 03:23:06;;;;;;;13.35;2.50;;;;;;;;;;4992789;28;20097;-66
2023/09/19 03:25:34;;;;;;;11.68;2.83;;;;;;;;;;4993529;28;20477;-66
2023/09/19 03:28:00;;;;;;;16.92;3.42;;;;;;;;;;4996074;28;20399;-67
2023/09/19 03:30:26;;;;;;;9.20;2.72;;;;;;;;;;5013389;28;20026;-66
2023/09/19 03:32:51;;;;;;;11.60;2.65;;;;;;;;;;5006322;28;20037;-66
2023/09/19 03:35:17;;;;;;;14.45;3.05;;;;;;;;;;5008034;28;20026;-66
2023/09/19 03:37:43;;;;;;;12.93;2.85;;;;;;;;;;5013124;28;20034;-66
2023/09/19 03:40:10;;;;;;;9.02;2.40;;;;;;;;;;5013038;28;20026;-66
2023/09/19 03:42:38;;;;;;;14.73;2.80;;;;;;;;;;5010947;28;20038;-66
2023/09/19 03:45:06;;;;;;;7.15;2.78;;;;;;;;;;4994155;28;20033;-66
2023/09/19 03:47:31;;;;;;;8.68;2.55;;;;;;;;;;4992969;28;20048;-66
2023/09/19 03:49:56;;;;;;;9.20;2.58;;;;;;;;;;4999901;28;20501;-66
2023/09/19 03:52:21;;;;;;;11.55;3.30;;;;;;;;;;4992770;28;20026;-66
2023/09/19 03:54:49;;;;;;;13.40;2.60;;;;;;;;;;4992171;28;20492;-66
2023/09/19 03:57:17;;;;;;;11.20;2.33;;;;;;;;;;5003817;28;20068;-66
2023/09/19 03:59:42;;;;;;;7.45;2.85;;;;;;;;;;4993657;28;20026;-66
2023/09/19 04:02:11;;;;;;;17.23;2.40;;;;;;;;;;4993115;28;20487;-66
2023/09/19 04:04:37;;;;;;;20.00;3.20;;;;;;;;;;4996828;28;20022;-67
2023/09/19 04:07:02;;;;;;;9.57;2.25;;;;;;;;;;5001259;28;20030;-67
2023/09/19 04:09:27;;;;;;;8.38;2.78;;;;;;;;;;4992976;28;20035;-66
2023/09/19 04:11:53;;;;;;;10.65;2.60;;;;;;;;;;5002478;28;20025;-67
2023/09/19 04:14:18;;;;;;;11.65;2.72;;;;;;;;;;5013243;28;20120;-66
2023/09/19 04:16:43;;;;;;;9.90;2.78;;;;;;;;;;5011677;28;20052;-66
2023/09/19 04:19:09;;;;;;;9.15;2.90;;;;;;;;;;5013572;28;20026;-66
2023/09/19 04:21:34;;;;;;;12.40;2.50;;;;;;;;;;5012824;28;20079;-66
2023/09/19 04:23:59;;;;;;;9.05;2.65;;;;;;;;;;5012608;28;20033;-66
2023/09/19 04:26:26;;;;;;;10.50;2.28;;;;;;;;;;5012989;28;20109;-66
2023/09/19 04:28:51;;;;;;;10.40;2.15;;;;;;;;;;5012780;28;20033;-66
2023/09/19 04:31:18;;;;;;;6.40;2.20;;;;;;;;;;5012686;28;20032;-66
2023/09/19 04:33:43;;;;;;;14.80;3.13;;;;;;;;;;5012360;28;20045;-66
2023/09/19 04:36:09;;;;;;;8.57;2.58;;;;;;;;;;5011157;28;20033;-66
2023/09/19 04:38:35;;;;;;;9.32;1.98;;;;;;;;;;5013114;28;20391;-67
2023/09/19 04:41:00;;;;;;;8.95;1.77;;;;;;;;;;5012880;28;20041;-66
2023/09/19 04:43:26;;;;;;;12.38;2.22;;;;;;;;;;5012352;28;20041;-66
2023/09/19 04:45:55;;;;;;;6.13;2.42;;;;;;;;;;5012735;28;20026;-66
2023/09/19 04:48:22;;;;;;;6.10;1.75;;;;;;;;;;5012162;28;20026;-66
2023/09/19 04:50:48;;;;;;;14.00;2.35;;;;;;;;;;5012704;28;20026;-66
2023/09/19 04:53:13;;;;;;;7.80;2.50;;;;;;;;;;5012445;28;20049;-66
2023/09/19 04:55:39;;;;;;;5.90;2.00;;;;;;;;;;5012739;28;20026;-66
2023/09/19 04:58:04;;;;;;;5.45;2.25;;;;;;;;;;5013032;28;20022;-67
2023/09/19 05:00:30;;;;;;;13.73;2.47;;;;;;;;;;5014279;28;20044;-67
2023/09/19 05:02:56;;;;;;;12.00;3.17;;;;;;;;;;5015638;28;20100;-67
2023/09/19 05:05:25;;;;;;;11.93;2.78;;;;;;;;;;5015720;28;20026;-67
2023/09/19 05:07:53;;;;;;;7.40;2.15;;;;;;;;;;4994181;28;20105;-67
2023/09/19 05:10:18;;;;;;;4.82;1.77;;;;;;;;;;5008133;28;20018;-67
2023/09/19 05:12:46;;;;;;;11.35;2.92;;;;;;;;;;5015789;28;20155;-68
2023/09/19 05:15:12;;;;;;;16.25;2.35;;;;;;;;;;5015560;28;20075;-68
2023/09/19 05:17:38;;;;;;;7.30;2.90;;;;;;;;;;5013962;28;20034;-68
2023/09/19 05:20:15;;;;;;;16.58;2.60;;;;;;;;;;5013970;28;20093;-68
2023/09/19 05:22:42;;;;;;;7.85;2.00;;;;;;;;;;5015248;28;20076;-68
2023/09/19 05:25:08;;;;;;;6.20;1.70;;;;;;;;;;5015090;28;20480;-68
2023/09/19 05:27:33;;;;;;;4.60;1.92;;;;;;;;;;5013965;28;20036;-67
2023/09/19 05:29:59;;;;;;;5.47;1.58;;;;;;;;;;5014976;28;20480;-67
2023/09/19 05:32:24;;;;;;;5.18;1.92;;;;;;;;;;5014367;28;20022;-67
2023/09/19 05:34:52;;;;;;;7.25;2.40;;;;;;;;;;5014981;28;20026;-67
2023/09/19 05:37:18;;;;;;;10.23;2.20;;;;;;;;;;5015218;28;20026;-67
2023/09/19 05:39:43;;;;;;;14.55;3.17;;;;;;;;;;5015187;28;20464;-68
2023/09/19 05:42:09;;;;;;;9.32;2.55;;;;;;;;;;5015388;28;20036;-68
2023/09/19 05:44:35;;;;;;;9.20;2.67;;;;;;;;;;5014663;28;20121;-68
2023/09/19 05:47:01;;;;;;;11.63;2.60;;;;;;;;;;5014376;28;20049;-68
2023/09/19 05:49:27;;;;;;;8.10;1.92;;;;;;;;;;5014360;28;20484;-68
2023/09/19 05:51:54;;;;;;;11.65;2.58;;;;;;;;;;5013482;28;20507;-68
2023/09/19 05:54:20;;;;;;;6.88;2.63;;;;;;;;;;5014619;28;20036;-68
2023/09/19 05:56:47;;;;;;;8.18;2.70;;;;;;;;;;5012718;28;20483;-68
2023/09/19 05:59:15;;;;;;;12.75;2.50;;;;;;;;;;4997045;28;20022;-67
2023/09/19 06:01:42;;;;;;;10.00;2.40;;;;;;;;;;4993490;28;20030;-67
2023/09/19 06:04:07;;;;;;;12.73;3.25;;;;;;;;;;5003184;28;20033;-67
2023/09/19 06:06:36;;;;;;;11.70;2.00;;;;;;;;;;4999577;28;20030;-67
2023/09/19 06:09:02;;;;;;;8.05;2.20;;;;;;;;;;4996176;28;20100;-67
2023/09/19 06:11:29;;;;;;;13.00;2.63;;;;;;;;;;4998493;28;20459;-67
2023/09/19 06:13:54;;;;;;;15.43;3.20;;;;;;;;;;4993350;28;20030;-67
2023/09/19 06:16:19;;;;;;;14.45;2.58;;;;;;;;;;5009245;28;20072;-68
2023/09/19 06:18:45;;;;;;;12.57;2.28;;;;;;;;;;5013543;28;20364;-67
2023/09/19 06:21:11;;;;;;;8.77;2.75;;;;;;;;;;5013871;28;20112;-67
2023/09/19 06:23:36;;;;;;;8.43;2.33;;;;;;;;;;5014240;28;20030;-67
2023/09/19 06:26:01;;;;;;;12.75;2.80;;;;;;;;;;5013838;28;20049;-67
2023/09/19 06:28:28;;;;;;;9.75;2.45;;;;;;;;;;5013956;28;20048;-67
2023/09/19 06:30:54;;;;;;;10.70;2.97;;;;;;;;;;5013584;28;20026;-67
2023/09/19 06:33:21;;;;;;;6.38;2.20;;;;;;;;;;5012578;28;20033;-67
2023/09/19 06:35:47;;;;;;;7.90;2.30;;;;;;;;;;5008508;28;20424;-67
2023/09/19 06:38:13;;;;;;;11.05;2.40;;;;;;;;;;5013893;28;20494;-67
2023/09/19 06:40:38;;;;;;;3.85;1.48;;;;;;;;;;5012998;28;20054;-67
2023/09/19 06:43:05;;;;;;;4.82;1.80;;;;;;;;;;5013720;28;20022;-67
2023/09/19 06:45:31;;;;;;;10.88;3.05;;;;;;;;;;5013699;28;20052;-67
2023/09/19 06:47:57;;;;;;;10.93;2.45;;;;;;;;;;5013789;28;20026;-67
2023/09/19 06:50:23;;;;;;;10.63;1.88;;;;;;;;;;5012247;28;20022;-67
2023/09/19 06:52:54;;;;;;;9.77;1.92;;;;;;;;;;5006890;28;20049;-67
2023/09/19 06:55:20;;;;;;;;;;;;;;;;;;4994233;28;20034;-69
2023/09/19 06:57:48;;;;;;;7.13;2.35;;;;;;;;;;4992928;28;19919;-72
2023/09/19 07:00:23;;;;;;;7.75;2.55;;;;;;;;;;4997288;28;20030;-73
2023/09/19 07:03:00;;;;;;;8.45;1.80;;;;;;;;;;4992573;28;20443;-72
2023/09/19 07:05:27;;;;;;;3.50;1.58;;;;;;;;;;5007818;28;20021;-72
2023/09/19 07:07:54;;;;;;;18.13;2.95;;;;;;;;;;5013707;28;20062;-72
2023/09/19 07:10:19;;;;;;;5.07;2.05;;;;;;;;;;5011991;28;20050;-72
2023/09/19 07:12:45;;;;;;;10.82;2.20;;;;;;;;;;5012096;28;20114;-72
2023/09/19 07:15:10;;;;;;;15.65;2.22;;;;;;;;;;5013309;28;20389;-72
2023/09/19 07:17:36;;;;;;;6.90;2.50;;;;;;;;;;5012882;28;20026;-74
2023/09/19 07:20:07;;;;;;;12.65;2.63;;;;;;;;;;5012422;28;20021;-71
2023/09/19 07:22:32;;;;;;;7.05;2.38;;;;;;;;;;5012954;28;20112;-71
2023/09/19 07:24:58;;;;;;;5.45;1.60;;;;;;;;;;4995561;28;20028;-70
2023/09/19 07:27:23;;;;;;;10.85;2.50;;;;;;;;;;5011116;28;20332;-71
2023/09/19 07:29:48;;;;;;;20.10;3.22;;;;;;;;;;4999350;28;20362;-71
2023/09/19 07:32:14;;;;;;;14.50;2.40;;;;;;;;;;4992360;28;20217;-71
2023/09/19 07:34:40;;;;;;;9.43;2.17;;;;;;;;;;5074224;23;20068;-73
2023/09/19 07:37:06;;;;;;;11.95;2.03;;;;;;;;;;5032287;28;20025;-73
2023/09/19 07:39:31;;;;;;;13.80;2.47;;;;;;;;;;5029712;28;20492;-73
2023/09/19 07:41:58;;;;;;;11.93;1.92;;;;;;;;;;5024307;28;20399;-73
2023/09/19 07:44:25;;;;;;;11.50;2.25;;;;;;;;;;5031525;28;20024;-73
2023/09/19 07:46:52;;;;;;;9.57;2.42;;;;;;;;;;5032072;28;20167;-73
2023/09/19 07:49:17;;;;;;;12.63;2.40;;;;;;;;;;5031962;28;20090;-73
2023/09/19 07:51:46;;;;;;;10.77;2.30;;;;;;;;;;5015810;28;20527;-73
2023/09/19 07:54:14;;;;;;;16.30;3.00;;;;;;;;;;5015704;28;20026;-73
2023/09/19 07:56:40;;;;;;;8.90;2.28;;;;;;;;;;5011328;28;20084;-73
2023/09/19 07:59:05;;;;;;;14.23;2.67;;;;;;;;;;5019878;28;20018;-73
2023/09/19 08:01:32;;;;;;;8.93;2.55;;;;;;;;;;5013811;28;20030;-73
2023/09/19 08:03:58;;;;;;;18.45;2.83;;;;;;;;;;5010435;28;20127;-72
2023/09/19 08:06:24;;;;;;;20.08;2.50;;;;;;;;;;5001485;28;20022;-71
2023/09/19 08:08:53;;;;;;;15.93;3.60;;;;;;;;;;4997226;28;20026;-71
2023/09/19 08:11:21;;;;;;;10.90;3.08;;;;;;;;;;4993411;28;20077;-73
2023/09/19 08:13:48;;;;;;;14.52;2.90;;;;;;;;;;5009605;28;20034;-72
2023/09/19 08:16:17;;;;;;;13.10;2.58;;;;;;;;;;5012074;28;20092;-73
2023/09/19 08:18:47;;;;;;;15.00;2.42;;;;;;;;;;5010131;28;20033;-70
2023/09/19 08:21:15;;;;;;;14.80;2.60;;;;;;;;;;5009030;28;20034;-70
2023/09/19 08:23:41;;;;;;;15.32;2.17;;;;;;;;;;5007095;28;20452;-69
2023/09/19 08:26:07;;;;;;;7.72;2.10;;;;;;;;;;5012922;28;20099;-70
2023/09/19 08:28:33;;;;;;;14.75;2.25;;;;;;;;;;5009068;28;20480;-69
2023/09/19 08:31:04;;;;;;;13.38;3.33;;;;;;;;;;4993583;28;20030;-69
2023/09/19 08:33:31;;;;;;;9.32;2.22;;;;;;;;;;4996134;28;20036;-69
2023/09/19 08:35:56;;;;;;;15.32;2.90;;;;;;;;;;5012915;28;20080;-69
2023/09/19 08:38:21;;;;;;;8.40;2.22;;;;;;;;;;5014711;28;20022;-69
2023/09/19 08:40:47;;;;;;;9.02;2.38;;;;;;;;;;5017587;28;20029;-69
2023/09/19 08:43:12;;;;;;;10.13;2.03;;;;;;;;;;5014369;28;20037;-69
2023/09/19 08:45:39;;;;;;;9.70;3.20;;;;;;;;;;5015488;28;20076;-68
2023/09/19 08:48:28;;;;;;;10.45;2.67;;;;;;;;;;5019686;28;20026;-69
2023/09/19 08:51:03;;;;;;;8.50;2.22;;;;;;;;;;5016133;28;20034;-69
2023/09/19 08:53:42;;;;;;;9.65;2.08;;;;;;;;;;5014862;28;20022;-69
2023/09/19 08:56:10;;;;;;;5.70;1.90;;;;;;;;;;4998595;28;20022;-69
2023/09/19 08:58:59;;;;;;;9.43;3.22;;;;;;;;;;5005642;28;20077;-69
2023/09/19 09:01:27;;;;;;;14.57;3.90;;;;;;;;;;4995310;28;20401;-69
2023/09/19 09:03:53;;;;;;;10.00;2.05;;;;;;;;;;4996350;28;20053;-69
2023/09/19 09:06:20;;;;;;;5.93;3.00;;;;;;;;;;5010064;28;20053;-69
2023/09/19 09:08:46;;;;;;;7.13;2.08;;;;;;;;;;5010649;28;20377;-69
2023/09/19 09:11:11;;;;;;;6.93;3.20;;;;;;;;;;4995116;28;20038;-69
2023/09/19 09:13:37;;;;;;;15.00;2.53;;;;;;;;;;5009104;28;20103;-69
2023/09/19 09:16:03;;;;;;;11.50;2.08;;;;;;;;;;5016106;28;20025;-69
2023/09/19 09:18:32;;;;;;;10.25;2.17;;;;;;;;;;5012169;28;20025;-68
2023/09/19 09:20:57;;;;;;;10.48;3.17;;;;;;;;;;5011108;28;20026;-69
2023/09/19 09:23:22;;;;;;;9.48;1.95;;;;;;;;;;5003353;28;20033;-69
2023/09/19 09:25:56;;;;;;;8.13;3.28;;;;;;;;;;5013708;28;20105;-69
2023/09/19 09:28:23;;;;;;;10.38;2.42;;;;;;;;;;5020699;28;20025;-69
2023/09/19 09:30:50;;;;;;;9.20;2.30;;;;;;;;;;5034371;28;20051;-69
2023/09/19 09:33:16;;;;;;;8.52;2.42;;;;;;;;;;5034208;28;20025;-70
2023/09/19 09:36:00;;;;;;;5.45;1.75;;;;;;;;;;5034220;28;20064;-70
2023/09/19 09:38:48;;;;;;;7.45;1.98;;;;;;;;;;5001673;28;20487;-70
2023/09/19 09:41:26;;;;;;;9.30;1.90;;;;;;;;;;5014342;28;20076;-70
2023/09/19 09:43:53;;;;;;;7.15;2.25;;;;;;;;;;5010588;28;20026;-70
2023/09/19 09:49:26;;;;;;;11.48;2.70;;;;;;;;;;5000021;28;20030;-70
2023/09/19 09:52:00;;;;;;;11.15;3.42;;;;;;;;;;4996667;28;20085;-70
2023/09/19 09:54:36;;;;;;;15.88;3.03;;;;;;;;;;5018576;28;20030;-70
2023/09/19 09:57:20;;;;;;;12.25;2.80;;;;;;;;;;5014304;28;20033;-70
2023/09/19 09:59:50;;;;;;;11.05;2.85;;;;;;;;;;5015760;28;20029;-70
2023/09/19 10:02:24;;;;;;;14.57;2.97;;;;;;;;;;5034372;28;20032;-70
2023/09/19 10:07:41;;;;;;;14.13;4.07;;;;;;;;;;5034271;28;20032;-70
2023/09/19 10:10:15;;;;;;;12.98;2.50;;;;;;;;;;5033228;28;20064;-70
2023/09/19 10:12:45;;;;;;;15.35;4.05;;;;;;;;;;5034255;28;20029;-70
2023/09/19 10:15:11;;;;;;;10.50;3.08;;;;;;;;;;5033363;28;20021;-70
2023/09/19 10:17:36;;;;;;;20.65;3.90;;;;;;;;;;5016766;28;20022;-71
2023/09/19 10:20:13;;;;;;;13.80;3.00;;;;;;;;;;5033958;28;20109;-70
2023/09/19 10:22:42;;;;;;;12.00;3.70;;;;;;;;;;5033212;28;20479;-71
2023/09/19 10:25:08;;;;;;;9.43;2.83;;;;;;;;;;5035629;28;20032;-71
2023/09/19 10:27:37;;;;;;;28.00;5.53;;;;;;;;;;5033436;28;20487;-71
2023/09/19 10:30:08;;;;;;;13.95;3.22;;;;;;;;;;5033311;28;20488;-70
2023/09/19 10:32:34;;;;;;;12.30;3.78;;;;;;;;;;5022794;28;20065;-70
2023/09/19 10:35:01;;;;;;;11.00;3.53;;;;;;;;;;5009447;28;20453;-69
2023/09/19 10:37:27;;;;;;;10.65;2.53;;;;;;;;;;5019089;28;20051;-70
2023/09/19 10:39:55;;;;;;;14.50;2.78;;;;;;;;;;5013614;28;20053;-70
2023/09/19 10:42:22;;;;;;;16.00;3.08;;;;;;;;;;5011541;28;20029;-69
2023/09/19 10:44:53;;;;;;;10.23;2.75;;;;;;;;;;5006080;28;20022;-70
2023/09/19 10:47:19;;;;;;;16.08;3.45;;;;;;;;;;5013782;28;20029;-70
2023/09/19 10:49:49;;;;;;;16.92;3.85;;;;;;;;;;5008162;28;20065;-70
2023/09/19 10:52:19;;;;;;;10.75;3.65;;;;;;;;;;4999666;28;20017;-69
2023/09/19 10:54:54;;;;;;;16.40;3.13;;;;;;;;;;5000102;28;20404;-69
2023/09/19 10:57:23;;;;;;;15.60;3.88;;;;;;;;;;4995475;28;20030;-69
2023/09/19 11:00:23;;;;;;;14.73;2.83;;;;;;;;;;5026676;28;20018;-70
2023/09/19 11:03:11;;;;;;;16.05;2.45;;;;;;;;;;4993345;28;20033;-69
2023/09/19 11:05:40;;;;;;;14.32;3.35;;;;;;;;;;5023965;28;20017;-69
2023/09/19 11:08:07;;;;;;;9.45;2.28;;;;;;;;;;5032009;28;20111;-69
2023/09/19 11:10:49;;;;;;;18.80;2.85;;;;;;;;;;5033142;28;20205;-69
2023/09/19 11:13:25;;;;;;;12.25;2.83;;;;;;;;;;5032197;28;20501;-69
2023/09/19 11:15:57;;;;;;;6.80;2.00;;;;;;;;;;5033699;28;20487;-69
2023/09/19 11:18:41;;;;;;;8.27;2.53;;;;;;;;;;5033501;28;20051;-69
2023/09/19 11:21:24;;;;;;;;;;;;;;;;;;4995258;28;20045;-70
2023/09/19 11:24:31;;;;;;;11.30;2.70;;;;;;;;;;5025051;28;19916;-70
2023/09/19 11:27:13;;;;;;;11.68;2.53;;;;;;;;;;5003930;28;20037;-70
2023/09/19 11:29:39;;;;;;;13.50;3.15;;;;;;;;;;5034878;28;20076;-71
2023/09/19 11:32:05;;;;;;;18.73;3.08;;;;;;;;;;5033370;28;20025;-70
2023/09/19 11:34:37;;;;;;;16.08;3.33;;;;;;;;;;5032239;28;20075;-70
2023/09/19 11:37:17;;;;;;;13.90;3.60;;;;;;;;;;5034514;28;20036;-69
2023/09/19 11:40:15;;;;;;;18.10;3.45;;;;;;;;;;5034257;28;20064;-70
2023/09/19 11:42:45;;;;;;;19.20;3.15;;;;;;;;;;5033616;28;20021;-69
2023/09/19 11:45:39;;;;;;;11.63;4.43;;;;;;;;;;5014672;28;20101;-69
2023/09/19 11:48:06;;;;;;;11.95;4.35;;;;;;;;;;5010381;28;20483;-69
2023/09/19 11:50:32;;;;;;;16.10;3.17;;;;;;;;;;5011360;28;20025;-70
2023/09/19 11:52:58;;;;;;;14.73;3.35;;;;;;;;;;5000245;28;20026;-69
2023/09/19 11:55:25;;;;;;;17.15;3.72;;;;;;;;;;5019679;28;20104;-69
2023/09/19 11:57:51;;;;;;;12.50;3.05;;;;;;;;;;5013722;28;20029;-69
2023/09/19 12:00:21;;;;;;;10.35;3.17;;;;;;;;;;5031563;28;20033;-69
2023/09/19 12:02:47;;;;;;;13.32;2.92;;;;;;;;;;5014838;28;20019;-70
2023/09/19 12:05:12;;;;;;;15.27;2.60;;;;;;;;;;5008279;28;20477;-69
2023/09/19 12:07:47;;;;;;;12.73;3.00;;;;;;;;;;5013579;28;20026;-69
2023/09/19 12:10:14;;;;;;;9.73;2.65;;;;;;;;;;4996524;28;20467;-69
2023/09/19 12:12:39;;;;;;;9.75;3.17;;;;;;;;;;4999047;28;20026;-69
2023/09/19 12:15:06;;;;;;;13.38;3.22;;;;;;;;;;5011407;28;20108;-71
2023/09/19 12:17:40;;;;;;;11.82;3.28;;;;;;;;;;5016031;28;20053;-71
2023/09/19 12:20:13;;;;;;;11.15;3.17;;;;;;;;;;5007967;28;20022;-71
2023/09/19 12:22:46;;;;;;;12.50;3.17;;;;;;;;;;5005058;28;20029;-70
2023/09/19 12:25:11;;;;;;;17.17;4.07;;;;;;;;;;5013959;28;20033;-72
2023/09/19 12:27:53;;;;;;;11.82;3.08;;;;;;;;;;5015764;28;20038;-71
2023/09/19 12:30:20;;;;;;;14.38;3.35;;;;;;;;;;5016153;28;20044;-72
2023/09/19 12:32:47;;;;;;;9.70;4.18;;;;;;;;;;5016260;28;20022;-72
2023/09/19 12:35:28;;;;;;;14.77;2.75;;;;;;;;;;5016066;28;20026;-72
2023/09/19 12:37:55;;;;;;;14.10;4.15;;;;;;;;;;5016092;28;20052;-72
2023/09/19 12:40:27;;;;;;;7.53;2.78;;;;;;;;;;5016860;28;20026;-71
2023/09/19 12:42:58;;;;;;;15.40;3.45;;;;;;;;;;5017188;28;20399;-72
2023/09/19 12:45:23;;;;;;;13.00;3.90;;;;;;;;;;5015894;28;20076;-71
2023/09/19 12:48:17;;;;;;;12.75;3.05;;;;;;;;;;5016190;28;20034;-72
2023/09/19 12:51:09;;;;;;;11.35;3.63;;;;;;;;;;4999459;28;20101;-72
2023/09/19 12:53:42;;;;;;;12.80;3.47;;;;;;;;;;5015719;28;20068;-72
2023/09/19 12:56:09;;;;;;;9.20;3.05;;;;;;;;;;5017014;28;20033;-72
2023/09/19 12:58:47;;;;;;;10.93;3.05;;;;;;;;;;5016112;28;20052;-71
2023/09/19 13:01:16;;;;;;;10.35;3.00;;;;;;;;;;5015626;28;20519;-71
2023/09/19 13:03:41;;;;;;;13.95;3.38;;;;;;;;;;5014895;28;20030;-71
2023/09/19 13:06:09;;;;;;;15.05;3.20;;;;;;;;;;5015441;28;20498;-71
2023/09/19 13:08:38;;;;;;;13.73;2.80;;;;;;;;;;5015415;28;20030;-72
2023/09/19 13:11:15;;;;;;;12.77;3.35;;;;;;;;;;5015263;28;20036;-72
2023/09/19 13:14:11;;;;;;;11.38;3.22;;;;;;;;;;5016656;28;20105;-72
2023/09/19 13:17:06;;;;;;;10.98;3.60;;;;;;;;;;5015857;28;20129;-71
2023/09/19 13:20:06;;;;;;;13.82;4.00;;;;;;;;;;5014324;28;20033;-71
2023/09/19 13:22:45;;;;;;;17.95;3.55;;;;;;;;;;5015931;28;20045;-72
2023/09/19 13:25:17;;;;;;;13.57;4.30;;;;;;;;;;5015212;28;20095;-72
2023/09/19 13:27:51;;;;;;;12.93;3.72;;;;;;;;;;5015760;28;20060;-72
2023/09/19 13:30:17;;;;;;;18.45;4.07;;;;;;;;;;5015521;28;20480;-72
2023/09/19 13:32:43;;;;;;;11.77;3.80;;;;;;;;;;5015070;28;20026;-71
2023/09/19 13:35:08;;;;;;;16.17;3.72;;;;;;;;;;5022430;23;20043;-69
2023/09/19 13:37:35;;;;;;;11.77;3.78;;;;;;;;;;4995133;28;20053;-69
2023/09/19 13:40:01;;;;;;;12.88;3.50;;;;;;;;;;4995580;28;20077;-69
2023/09/19 13:42:29;;;;;;;14.55;3.67;;;;;;;;;;4995554;28;20018;-67
2023/09/19 13:44:55;;;;;;;10.88;3.17;;;;;;;;;;4995468;28;20129;-68
2023/09/19 13:47:24;;;;;;;18.05;3.60;;;;;;;;;;4995003;28;20030;-68
2023/09/19 13:49:52;;;;;;;13.55;4.25;;;;;;;;;;4995368;28;20105;-68
2023/09/19 13:52:18;;;;;;;13.57;3.70;;;;;;;;;;4994141;28;20022;-68
2023/09/19 13:54:43;;;;;;;8.00;2.72;;;;;;;;;;4995287;28;20034;-67
2023/09/19 13:57:09;;;;;;;11.20;2.97;;;;;;;;;;4994650;28;20018;-68
2023/09/19 13:59:35;;;;;;;10.43;3.42;;;;;;;;;;4985631;28;20033;-68
2023/09/19 14:02:00;;;;;;;16.00;4.35;;;;;;;;;;4976246;28;20019;-67
2023/09/19 14:04:25;;;;;;;10.85;3.15;;;;;;;;;;4975490;28;20046;-68
2023/09/19 14:06:52;;;;;;;14.35;3.47;;;;;;;;;;4978717;28;20034;-68
2023/09/19 14:09:19;;;;;;;10.18;3.22;;;;;;;;;;4987885;28;20031;-67
2023/09/19 14:51:59;;;;;;;15.02;2.97;;;;;;;;;;5070588;28;20334;-69
2023/09/19 14:54:24;;;;;;;9.00;2.90;;;;;;;;;;5069800;28;20567;-69
2023/09/19 14:56:53;;;;;;;11.98;3.38;;;;;;;;;;5069415;28;20109;-68
2023/09/19 14:59:20;;;;;;;15.77;4.68;;;;;;;;;;5054961;28;20031;-68
2023/09/19 15:01:45;;;;;;;11.55;3.35;;;;;;;;;;5049740;28;20021;-68
2023/09/19 15:04:10;;;;;;;11.48;3.53;;;;;;;;;;5048980;28;20470;-66
2023/09/19 15:06:36;;;;;;;15.40;3.30;;;;;;;;;;5049594;28;20033;-66
2023/09/19 15:09:01;;;;;;;8.95;3.08;;;;;;;;;;5048862;28;20075;-66
2023/09/19 15:11:27;;;;;;;14.90;4.68;;;;;;;;;;5049176;28;20021;-66
2023/09/19 15:13:54;;;;;;;16.45;3.80;;;;;;;;;;5054390;28;20036;-65
2023/09/19 15:16:19;;;;;;;11.85;3.20;;;;;;;;;;5069050;28;20075;-66
2023/09/19 15:18:47;;;;;;;12.20;2.85;;;;;;;;;;5064452;28;20033;-65
2023/09/19 15:21:14;;;;;;;13.93;3.25;;;;;;;;;;5048662;28;20028;-66
2023/09/19 15:23:41;;;;;;;13.02;3.15;;;;;;;;;;5048790;28;20029;-65
2023/09/19 15:26:08;;;;;;;10.88;4.55;;;;;;;;;;5048850;28;20022;-66
2023/09/19 15:28:34;;;;;;;19.60;3.35;;;;;;;;;;5051396;28;20029;-66
2023/09/19 15:31:06;;;;;;;8.98;3.20;;;;;;;;;;5069027;28;20082;-66
2023/09/19 15:33:31;;;;;;;12.77;3.67;;;;;;;;;;5069172;28;20036;-66